sensor_id;sensor_type;location;lat;lon;timestamp;pressure;altitude;pressure_sealevel;temperature;humidity
73338;BME280;61575;49.908;35.556;2022-07-17T00:01:16;99331.06;;;17.53;65.91
73338;BME280;61575;49.908;35.556;2022-07-17T00:04:18;99324.00;;;17.45;66.01
73338;BME280;61575;49.908;35.556;2022-07-17T00:07:21;99315.25;;;17.37;66.78
73338;BME280;61575;49.908;35.556;2022-07-17T00:10:23;99316.94;;;17.31;66.82
73338;BME280;61575;49.908;35.556;2022-07-17T00:13:25;99328.00;;;17.23;66.84
73338;BME280;61575;49.908;35.556;2022-07-17T00:16:27;99326.13;;;17.17;67.11
73338;BME280;61575;49.908;35.556;2022-07-17T00:19:29;99328.63;;;17.12;67.44
73338;BME280;61575;49.908;35.556;2022-07-17T00:22:31;99325.91;;;17.05;67.46
73338;BME280;61575;49.908;35.556;2022-07-17T00:25:33;99324.88;;;17.00;67.45
73338;BME280;61575;49.908;35.556;2022-07-17T00:28:35;99320.09;;;16.95;67.65
73338;BME280;61575;49.908;35.556;2022-07-17T00:31:36;99325.94;;;16.86;67.99
73338;BME280;61575;49.908;35.556;2022-07-17T00:34:38;99315.72;;;16.68;68.40
73338;BME280;61575;49.908;35.556;2022-07-17T00:37:42;99313.22;;;16.66;68.49
73338;BME280;61575;49.908;35.556;2022-07-17T00:40:44;99318.84;;;16.65;69.01
73338;BME280;61575;49.908;35.556;2022-07-17T00:43:47;99316.97;;;16.65;68.66
73338;BME280;61575;49.908;35.556;2022-07-17T00:46:49;99322.75;;;16.62;68.88
73338;BME280;61575;49.908;35.556;2022-07-17T00:49:51;99313.19;;;16.60;69.41
73338;BME280;61575;49.908;35.556;2022-07-17T00:52:53;99316.09;;;16.58;69.15
73338;BME280;61575;49.908;35.556;2022-07-17T00:55:56;99302.97;;;16.55;69.14
73338;BME280;61575;49.908;35.556;2022-07-17T00:59:00;99300.47;;;16.53;69.48
73338;BME280;61575;49.908;35.556;2022-07-17T01:02:07;99302.34;;;16.53;69.51
73338;BME280;61575;49.908;35.556;2022-07-17T01:05:09;99301.09;;;16.49;69.69
73338;BME280;61575;49.908;35.556;2022-07-17T01:08:15;99302.13;;;16.48;69.57
73338;BME280;61575;49.908;35.556;2022-07-17T01:11:17;99304.63;;;16.43;69.50
73338;BME280;61575;49.908;35.556;2022-07-17T01:14:19;99301.06;;;16.42;69.09
73338;BME280;61575;49.908;35.556;2022-07-17T01:17:22;99310.44;;;16.40;69.59
73338;BME280;61575;49.908;35.556;2022-07-17T01:20:24;99305.22;;;16.38;69.33
73338;BME280;61575;49.908;35.556;2022-07-17T01:23:26;99304.59;;;16.36;69.30
73338;BME280;61575;49.908;35.556;2022-07-17T01:26:28;99302.94;;;16.35;69.24
73338;BME280;61575;49.908;35.556;2022-07-17T01:29:30;99289.63;;;16.34;69.42
73338;BME280;61575;49.908;35.556;2022-07-17T01:32:37;99297.94;;;16.32;69.64
73338;BME280;61575;49.908;35.556;2022-07-17T01:35:40;99288.38;;;16.30;69.82
73338;BME280;61575;49.908;35.556;2022-07-17T01:38:42;99296.69;;;16.28;69.95
73338;BME280;61575;49.908;35.556;2022-07-17T01:41:44;99281.28;;;16.29;70.10
73338;BME280;61575;49.908;35.556;2022-07-17T01:44:46;99284.19;;;16.27;70.10
73338;BME280;61575;49.908;35.556;2022-07-17T01:47:48;99287.94;;;16.26;69.87
73338;BME280;61575;49.908;35.556;2022-07-17T01:50:51;99290.66;;;16.26;70.13
73338;BME280;61575;49.908;35.556;2022-07-17T01:53:53;99287.50;;;16.23;69.90
73338;BME280;61575;49.908;35.556;2022-07-17T01:56:55;99290.63;;;16.19;69.81
73338;BME280;61575;49.908;35.556;2022-07-17T01:59:58;99296.66;;;16.15;69.85
73338;BME280;61575;49.908;35.556;2022-07-17T02:03:00;99303.88;;;15.95;70.26
73338;BME280;61575;49.908;35.556;2022-07-17T02:06:02;99301.59;;;15.98;70.06
73338;BME280;61575;49.908;35.556;2022-07-17T02:09:04;99302.22;;;16.00;70.51
73338;BME280;61575;49.908;35.556;2022-07-17T02:12:06;99299.31;;;16.02;70.67
73338;BME280;61575;49.908;35.556;2022-07-17T02:15:08;99300.97;;;16.03;70.72
73338;BME280;61575;49.908;35.556;2022-07-17T02:18:11;99299.53;;;16.07;70.55
73338;BME280;61575;49.908;35.556;2022-07-17T02:21:13;99302.03;;;16.08;70.36
73338;BME280;61575;49.908;35.556;2022-07-17T02:24:15;99302.47;;;16.12;70.49
73338;BME280;61575;49.908;35.556;2022-07-17T02:27:17;99302.25;;;16.13;70.93
73338;BME280;61575;49.908;35.556;2022-07-17T02:30:20;99299.16;;;16.16;71.12
73338;BME280;61575;49.908;35.556;2022-07-17T02:33:22;99300.41;;;16.20;71.13
73338;BME280;61575;49.908;35.556;2022-07-17T02:36:24;99291.88;;;16.24;71.15
73338;BME280;61575;49.908;35.556;2022-07-17T02:39:26;99293.97;;;16.28;71.21
73338;BME280;61575;49.908;35.556;2022-07-17T02:42:28;99278.78;;;16.34;71.46
73338;BME280;61575;49.908;35.556;2022-07-17T02:45:30;99280.69;;;16.40;71.44
73338;BME280;61575;49.908;35.556;2022-07-17T02:48:32;99286.09;;;16.46;71.54
73338;BME280;61575;49.908;35.556;2022-07-17T02:51:37;99284.03;;;16.55;71.47
73338;BME280;61575;49.908;35.556;2022-07-17T02:54:39;99277.56;;;16.63;71.66
73338;BME280;61575;49.908;35.556;2022-07-17T02:57:41;99273.88;;;16.70;71.34
73338;BME280;61575;49.908;35.556;2022-07-17T03:00:43;99270.13;;;16.78;70.71
73338;BME280;61575;49.908;35.556;2022-07-17T03:03:45;99263.22;;;16.89;70.54
73338;BME280;61575;49.908;35.556;2022-07-17T03:06:47;99266.16;;;16.94;70.24
73338;BME280;61575;49.908;35.556;2022-07-17T03:09:52;99259.25;;;17.04;69.21
73338;BME280;61575;49.908;35.556;2022-07-17T03:12:54;99262.16;;;17.16;68.35
73338;BME280;61575;49.908;35.556;2022-07-17T03:15:56;99265.47;;;17.25;67.57
73338;BME280;61575;49.908;35.556;2022-07-17T03:18:58;99264.19;;;17.34;67.15
73338;BME280;61575;49.908;35.556;2022-07-17T03:22:01;99271.03;;;17.43;66.55
73338;BME280;61575;49.908;35.556;2022-07-17T03:25:04;99273.31;;;17.53;66.18
73338;BME280;61575;49.908;35.556;2022-07-17T03:28:06;99281.59;;;17.64;66.47
73338;BME280;61575;49.908;35.556;2022-07-17T03:31:08;99284.72;;;17.74;66.35
73338;BME280;61575;49.908;35.556;2022-07-17T03:34:10;99275.31;;;17.84;66.21
73338;BME280;61575;49.908;35.556;2022-07-17T03:37:12;99287.34;;;17.94;65.56
73338;BME280;61575;49.908;35.556;2022-07-17T03:40:14;99282.28;;;18.04;64.95
73338;BME280;61575;49.908;35.556;2022-07-17T03:43:16;99283.06;;;18.18;64.25
73338;BME280;61575;49.908;35.556;2022-07-17T03:46:18;99288.19;;;18.33;64.04
73338;BME280;61575;49.908;35.556;2022-07-17T03:49:20;99278.47;;;18.50;63.93
73338;BME280;61575;49.908;35.556;2022-07-17T03:52:22;99282.94;;;18.69;63.25
73338;BME280;61575;49.908;35.556;2022-07-17T03:55:25;99280.88;;;18.90;62.82
73338;BME280;61575;49.908;35.556;2022-07-17T03:58:27;99281.31;;;19.12;62.41
73338;BME280;61575;49.908;35.556;2022-07-17T04:01:29;99277.13;;;19.34;62.00
73338;BME280;61575;49.908;35.556;2022-07-17T04:04:31;99274.81;;;19.56;61.17
73338;BME280;61575;49.908;35.556;2022-07-17T04:07:33;99275.78;;;19.80;60.47
73338;BME280;61575;49.908;35.556;2022-07-17T04:10:35;99273.41;;;20.01;59.86
73338;BME280;61575;49.908;35.556;2022-07-17T04:13:38;99268.88;;;20.25;58.80
73338;BME280;61575;49.908;35.556;2022-07-17T04:16:40;99272.53;;;20.49;58.72
73338;BME280;61575;49.908;35.556;2022-07-17T04:19:42;99264.19;;;20.74;58.51
73338;BME280;61575;49.908;35.556;2022-07-17T04:22:44;99271.97;;;20.94;56.65
73338;BME280;61575;49.908;35.556;2022-07-17T04:25:46;99263.94;;;21.11;55.88
73338;BME280;61575;49.908;35.556;2022-07-17T04:28:48;99252.81;;;21.36;56.21
73338;BME280;61575;49.908;35.556;2022-07-17T04:31:50;99266.84;;;21.67;55.42
73338;BME280;61575;49.908;35.556;2022-07-17T04:34:53;99267.38;;;21.93;53.73
73338;BME280;61575;49.908;35.556;2022-07-17T04:37:56;99253.56;;;22.11;53.53
73338;BME280;61575;49.908;35.556;2022-07-17T04:40:57;99251.06;;;22.38;52.85
73338;BME280;61575;49.908;35.556;2022-07-17T04:43:59;99249.34;;;22.49;51.74
73338;BME280;61575;49.908;35.556;2022-07-17T04:47:01;99255.63;;;22.66;50.11
73338;BME280;61575;49.908;35.556;2022-07-17T04:50:04;99250.78;;;22.85;49.87
73338;BME280;61575;49.908;35.556;2022-07-17T04:53:05;99247.94;;;23.13;49.95
73338;BME280;61575;49.908;35.556;2022-07-17T04:56:07;99241.75;;;23.40;49.61
73338;BME280;61575;49.908;35.556;2022-07-17T04:59:09;99233.38;;;23.68;49.40
73338;BME280;61575;49.908;35.556;2022-07-17T05:02:11;99234.34;;;23.79;47.44
73338;BME280;61575;49.908;35.556;2022-07-17T05:05:13;99225.53;;;23.99;46.90
73338;BME280;61575;49.908;35.556;2022-07-17T05:08:15;99225.75;;;24.19;46.75
73338;BME280;61575;49.908;35.556;2022-07-17T05:11:17;99226.06;;;24.49;46.48
73338;BME280;61575;49.908;35.556;2022-07-17T05:14:19;99222.34;;;24.66;45.59
73338;BME280;61575;49.908;35.556;2022-07-17T05:17:21;99232.13;;;24.89;43.91
73338;BME280;61575;49.908;35.556;2022-07-17T05:20:23;99230.63;;;25.03;43.56
73338;BME280;61575;49.908;35.556;2022-07-17T05:23:25;99219.91;;;25.01;44.07
73338;BME280;61575;49.908;35.556;2022-07-17T05:26:27;99218.47;;;24.94;43.71
73338;BME280;61575;49.908;35.556;2022-07-17T05:29:29;99220.91;;;24.90;43.81
73338;BME280;61575;49.908;35.556;2022-07-17T05:32:31;99218.16;;;24.90;43.20
73338;BME280;61575;49.908;35.556;2022-07-17T05:35:33;99220.34;;;24.88;43.20
73338;BME280;61575;49.908;35.556;2022-07-17T05:38:35;99222.50;;;24.86;43.30
73338;BME280;61575;49.908;35.556;2022-07-17T05:41:37;99219.22;;;24.84;44.66
73338;BME280;61575;49.908;35.556;2022-07-17T05:44:39;99213.31;;;24.65;43.26
73338;BME280;61575;49.908;35.556;2022-07-17T05:47:41;99223.19;;;24.66;43.06
73338;BME280;61575;49.908;35.556;2022-07-17T05:50:42;99218.75;;;24.60;42.63
73338;BME280;61575;49.908;35.556;2022-07-17T05:53:45;99220.63;;;24.54;43.17
73338;BME280;61575;49.908;35.556;2022-07-17T05:56:47;99214.91;;;24.61;43.36
73338;BME280;61575;49.908;35.556;2022-07-17T05:59:48;99224.06;;;24.72;43.57
73338;BME280;61575;49.908;35.556;2022-07-17T06:02:50;99223.34;;;24.86;42.93
73338;BME280;61575;49.908;35.556;2022-07-17T06:05:52;99223.13;;;24.93;42.73
73338;BME280;61575;49.908;35.556;2022-07-17T06:08:54;99220.91;;;25.32;42.18
73338;BME280;61575;49.908;35.556;2022-07-17T06:11:56;99215.56;;;25.63;40.92
73338;BME280;61575;49.908;35.556;2022-07-17T06:14:58;99222.44;;;25.60;41.62
73338;BME280;61575;49.908;35.556;2022-07-17T06:18:03;99219.88;;;25.43;40.87
73338;BME280;61575;49.908;35.556;2022-07-17T06:21:05;99228.31;;;25.32;41.60
73338;BME280;61575;49.908;35.556;2022-07-17T06:24:07;99228.78;;;25.18;42.03
73338;BME280;61575;49.908;35.556;2022-07-17T06:27:09;99224.88;;;25.04;41.90
73338;BME280;61575;49.908;35.556;2022-07-17T06:30:12;99236.91;;;24.98;42.37
73338;BME280;61575;49.908;35.556;2022-07-17T06:33:15;99220.94;;;24.95;42.33
73338;BME280;61575;49.908;35.556;2022-07-17T06:36:17;99236.91;;;24.98;42.60
73338;BME280;61575;49.908;35.556;2022-07-17T06:39:18;99233.34;;;25.03;42.61
73338;BME280;61575;49.908;35.556;2022-07-17T06:42:20;99229.78;;;25.02;42.92
73338;BME280;61575;49.908;35.556;2022-07-17T06:45:23;99229.53;;;25.04;42.38
73338;BME280;61575;49.908;35.556;2022-07-17T06:48:25;99226.81;;;25.09;41.42
73338;BME280;61575;49.908;35.556;2022-07-17T06:51:26;99235.59;;;25.11;40.87
73338;BME280;61575;49.908;35.556;2022-07-17T06:54:28;99237.78;;;25.09;40.40
73338;BME280;61575;49.908;35.556;2022-07-17T06:57:30;99235.34;;;25.12;41.29
73338;BME280;61575;49.908;35.556;2022-07-17T07:00:32;99236.69;;;25.10;39.62
73338;BME280;61575;49.908;35.556;2022-07-17T07:03:34;99233.16;;;25.14;40.57
73338;BME280;61575;49.908;35.556;2022-07-17T07:06:37;99235.38;;;25.17;40.42
73338;BME280;61575;49.908;35.556;2022-07-17T07:09:39;99238.16;;;25.23;39.65
73338;BME280;61575;49.908;35.556;2022-07-17T07:12:41;99228.28;;;25.27;39.98
73338;BME280;61575;49.908;35.556;2022-07-17T07:15:43;99233.25;;;25.30;39.89
73338;BME280;61575;49.908;35.556;2022-07-17T07:18:45;99233.81;;;25.32;39.40
73338;BME280;61575;49.908;35.556;2022-07-17T07:21:48;99226.44;;;25.37;39.01
73338;BME280;61575;49.908;35.556;2022-07-17T07:24:50;99231.13;;;25.42;39.15
73338;BME280;61575;49.908;35.556;2022-07-17T07:27:51;99236.91;;;25.45;38.99
73338;BME280;61575;49.908;35.556;2022-07-17T07:30:53;99244.88;;;25.47;37.52
73338;BME280;61575;49.908;35.556;2022-07-17T07:33:55;99254.69;;;25.33;40.41
73338;BME280;61575;49.908;35.556;2022-07-17T07:36:57;99271.97;;;25.33;41.33
73338;BME280;61575;49.908;35.556;2022-07-17T07:40:03;99284.19;;;25.58;41.78
73338;BME280;61575;49.908;35.556;2022-07-17T07:43:05;99297.41;;;24.92;44.29
73338;BME280;61575;49.908;35.556;2022-07-17T07:46:07;99298.09;;;24.45;47.05
73338;BME280;61575;49.908;35.556;2022-07-17T07:49:10;99310.78;;;24.83;47.58
73338;BME280;61575;49.908;35.556;2022-07-17T07:52:11;99311.78;;;24.23;47.86
73338;BME280;61575;49.908;35.556;2022-07-17T07:55:14;99318.34;;;24.22;48.42
73338;BME280;61575;49.908;35.556;2022-07-17T07:58:21;99328.88;;;23.86;48.35
73338;BME280;61575;49.908;35.556;2022-07-17T08:01:23;99338.69;;;23.82;47.20
73338;BME280;61575;49.908;35.556;2022-07-17T08:04:25;99341.81;;;23.19;48.08
73338;BME280;61575;49.908;35.556;2022-07-17T08:07:27;99345.19;;;23.43;47.98
73338;BME280;61575;49.908;35.556;2022-07-17T08:10:30;99346.63;;;23.29;48.86
73338;BME280;61575;49.908;35.556;2022-07-17T08:13:32;99345.22;;;23.09;48.07
73338;BME280;61575;49.908;35.556;2022-07-17T08:16:34;99343.66;;;22.11;48.89
73338;BME280;61575;49.908;35.556;2022-07-17T08:19:37;99340.81;;;22.06;49.39
73338;BME280;61575;49.908;35.556;2022-07-17T08:22:39;99350.22;;;22.39;49.49
73338;BME280;61575;49.908;35.556;2022-07-17T08:26:02;99357.44;;;22.45;48.80
73338;BME280;61575;49.908;35.556;2022-07-17T08:29:11;99364.66;;;21.99;49.61
73338;BME280;61575;49.908;35.556;2022-07-17T08:32:13;99370.16;;;21.76;51.02
73338;BME280;61575;49.908;35.556;2022-07-17T08:35:15;99375.16;;;21.55;51.41
73338;BME280;61575;49.908;35.556;2022-07-17T08:38:17;99362.59;;;21.43;51.87
73338;BME280;61575;49.908;35.556;2022-07-17T08:41:19;99373.72;;;21.29;53.13
73338;BME280;61575;49.908;35.556;2022-07-17T08:44:27;99379.91;;;21.25;53.28
73338;BME280;61575;49.908;35.556;2022-07-17T08:47:30;99371.25;;;21.28;53.91
73338;BME280;61575;49.908;35.556;2022-07-17T08:50:36;99385.59;;;21.23;54.13
73338;BME280;61575;49.908;35.556;2022-07-17T08:53:38;99380.44;;;21.15;54.93
73338;BME280;61575;49.908;35.556;2022-07-17T08:56:42;99382.75;;;21.30;54.52
73338;BME280;61575;49.908;35.556;2022-07-17T08:59:48;99380.03;;;21.42;54.49
73338;BME280;61575;49.908;35.556;2022-07-17T09:02:59;99369.44;;;21.22;54.88
73338;BME280;61575;49.908;35.556;2022-07-17T09:06:02;99375.50;;;21.36;55.44
73338;BME280;61575;49.908;35.556;2022-07-17T09:09:12;99372.78;;;21.24;56.09
73338;BME280;61575;49.908;35.556;2022-07-17T09:12:14;99368.00;;;21.19;56.19
73338;BME280;61575;49.908;35.556;2022-07-17T09:15:17;99377.53;;;21.40;56.51
73338;BME280;61575;49.908;35.556;2022-07-17T09:18:21;99379.56;;;21.45;55.80
73338;BME280;61575;49.908;35.556;2022-07-17T09:21:26;99380.25;;;21.40;56.12
73338;BME280;61575;49.908;35.556;2022-07-17T09:24:39;99379.81;;;21.01;56.89
73338;BME280;61575;49.908;35.556;2022-07-17T09:27:42;99385.09;;;21.26;56.78
73338;BME280;61575;49.908;35.556;2022-07-17T09:30:47;99374.31;;;21.31;56.97
73338;BME280;61575;49.908;35.556;2022-07-17T09:33:50;99385.81;;;21.33;57.23
73338;BME280;61575;49.908;35.556;2022-07-17T09:37:02;99393.28;;;21.26;56.64
73338;BME280;61575;49.908;35.556;2022-07-17T09:40:12;99396.44;;;21.12;56.90
73338;BME280;61575;49.908;35.556;2022-07-17T09:46:46;99392.31;;;20.67;57.92
73338;BME280;61575;49.908;35.556;2022-07-17T09:49:50;99395.91;;;20.80;57.70
73338;BME280;61575;49.908;35.556;2022-07-17T09:52:56;99401.31;;;20.68;57.80
73338;BME280;61575;49.908;35.556;2022-07-17T09:55:59;99398.09;;;20.59;58.11
73338;BME280;61575;49.908;35.556;2022-07-17T09:59:08;99398.78;;;20.55;58.46
73338;BME280;61575;49.908;35.556;2022-07-17T10:02:10;99392.09;;;20.69;58.54
73338;BME280;61575;49.908;35.556;2022-07-17T10:05:14;99393.41;;;20.90;58.71
73338;BME280;61575;49.908;35.556;2022-07-17T10:08:17;99394.47;;;20.89;58.35
73338;BME280;61575;49.908;35.556;2022-07-17T10:11:22;99381.34;;;20.97;58.25
73338;BME280;61575;49.908;35.556;2022-07-17T10:14:24;99377.56;;;20.98;58.29
73338;BME280;61575;49.908;35.556;2022-07-17T10:17:28;99372.34;;;20.97;58.70
73338;BME280;61575;49.908;35.556;2022-07-17T10:20:32;99372.34;;;20.97;58.77
73338;BME280;61575;49.908;35.556;2022-07-17T10:23:37;99375.91;;;20.97;58.40
73338;BME280;61575;49.908;35.556;2022-07-17T10:26:46;99363.34;;;20.96;58.40
73338;BME280;61575;49.908;35.556;2022-07-17T10:30:09;99366.50;;;21.35;58.23
73338;BME280;61575;49.908;35.556;2022-07-17T10:33:16;99359.75;;;21.61;56.99
73338;BME280;61575;49.908;35.556;2022-07-17T10:36:43;99361.84;;;21.82;57.48
73338;BME280;61575;49.908;35.556;2022-07-17T10:39:54;99348.75;;;22.19;56.11
73338;BME280;61575;49.908;35.556;2022-07-17T10:43:01;99330.09;;;22.73;55.72
73338;BME280;61575;49.908;35.556;2022-07-17T10:46:03;99317.38;;;23.12;53.65
73338;BME280;61575;49.908;35.556;2022-07-17T10:49:05;99312.13;;;23.61;53.15
73338;BME280;61575;49.908;35.556;2022-07-17T10:52:11;99297.03;;;23.80;51.56
73338;BME280;61575;49.908;35.556;2022-07-17T10:55:18;99286.22;;;23.90;51.12
73338;BME280;61575;49.908;35.556;2022-07-17T10:58:35;99273.22;;;23.81;49.25
73338;BME280;61575;49.908;35.556;2022-07-17T11:01:41;99258.91;;;23.74;50.26
73338;BME280;61575;49.908;35.556;2022-07-17T11:04:43;99246.94;;;23.80;49.89
73338;BME280;61575;49.908;35.556;2022-07-17T11:07:53;99229.19;;;23.82;50.46
73338;BME280;61575;49.908;35.556;2022-07-17T11:10:55;99208.63;;;23.80;50.18
73338;BME280;61575;49.908;35.556;2022-07-17T11:14:16;99227.94;;;23.95;50.63
73338;BME280;61575;49.908;35.556;2022-07-17T11:17:20;99213.22;;;24.01;50.70
73338;BME280;61575;49.908;35.556;2022-07-17T11:20:23;99205.00;;;23.74;49.38
73338;BME280;61575;49.908;35.556;2022-07-17T11:23:29;99201.16;;;23.53;49.79
73338;BME280;61575;49.908;35.556;2022-07-17T11:26:32;99207.00;;;23.40;50.78
73338;BME280;61575;49.908;35.556;2022-07-17T11:29:38;99213.09;;;23.25;51.85
73338;BME280;61575;49.908;35.556;2022-07-17T11:32:41;99222.38;;;23.24;52.26
73338;BME280;61575;49.908;35.556;2022-07-17T11:35:46;99225.44;;;23.28;51.90
73338;BME280;61575;49.908;35.556;2022-07-17T11:38:49;99224.44;;;23.34;51.22
73338;BME280;61575;49.908;35.556;2022-07-17T11:41:52;99224.53;;;23.22;51.00
73338;BME280;61575;49.908;35.556;2022-07-17T11:44:55;99237.91;;;23.19;50.57
73338;BME280;61575;49.908;35.556;2022-07-17T11:48:01;99243.97;;;23.04;51.39
73338;BME280;61575;49.908;35.556;2022-07-17T11:51:04;99243.53;;;23.12;51.62
73338;BME280;61575;49.908;35.556;2022-07-17T11:54:13;99248.66;;;23.25;51.88
73338;BME280;61575;49.908;35.556;2022-07-17T11:57:17;99255.31;;;23.51;51.44
73338;BME280;61575;49.908;35.556;2022-07-17T12:00:20;99263.44;;;23.63;51.91
73338;BME280;61575;49.908;35.556;2022-07-17T12:03:25;99278.38;;;23.99;50.54
73338;BME280;61575;49.908;35.556;2022-07-17T12:06:31;99287.72;;;24.25;49.67
73338;BME280;61575;49.908;35.556;2022-07-17T12:09:33;99285.63;;;24.91;49.72
73338;BME280;61575;49.908;35.556;2022-07-17T12:12:36;99293.47;;;25.09;49.58
73338;BME280;61575;49.908;35.556;2022-07-17T12:15:39;99291.22;;;25.38;48.52
73338;BME280;61575;49.908;35.556;2022-07-17T12:18:42;99290.72;;;25.46;48.07
73338;BME280;61575;49.908;35.556;2022-07-17T12:22:02;99283.84;;;25.44;45.71
73338;BME280;61575;49.908;35.556;2022-07-17T12:25:04;99283.03;;;25.48;45.90
73338;BME280;61575;49.908;35.556;2022-07-17T12:28:08;99277.78;;;25.89;46.30
73338;BME280;61575;49.908;35.556;2022-07-17T12:31:11;99276.66;;;25.85;45.04
73338;BME280;61575;49.908;35.556;2022-07-17T12:34:14;99273.34;;;25.78;45.14
73338;BME280;61575;49.908;35.556;2022-07-17T12:37:18;99271.69;;;25.77;44.79
73338;BME280;61575;49.908;35.556;2022-07-17T12:40:20;99280.13;;;25.65;44.03
73338;BME280;61575;49.908;35.556;2022-07-17T12:43:24;99278.56;;;25.37;44.84
73338;BME280;61575;49.908;35.556;2022-07-17T12:46:26;99280.88;;;25.56;44.16
73338;BME280;61575;49.908;35.556;2022-07-17T12:49:31;99282.72;;;25.92;44.97
73338;BME280;61575;49.908;35.556;2022-07-17T12:52:33;99272.38;;;26.30;45.47
73338;BME280;61575;49.908;35.556;2022-07-17T12:55:36;99271.34;;;26.61;45.17
73338;BME280;61575;49.908;35.556;2022-07-17T12:58:41;99275.78;;;26.98;44.04
73338;BME280;61575;49.908;35.556;2022-07-17T13:01:44;99272.75;;;27.09;43.35
73338;BME280;61575;49.908;35.556;2022-07-17T13:04:47;99265.28;;;27.25;42.70
73338;BME280;61575;49.908;35.556;2022-07-17T13:07:50;99266.41;;;27.19;39.85
73338;BME280;61575;49.908;35.556;2022-07-17T13:10:51;99268.06;;;27.20;39.70
73338;BME280;61575;49.908;35.556;2022-07-17T13:13:54;99268.34;;;27.03;39.41
73338;BME280;61575;49.908;35.556;2022-07-17T13:16:57;99266.13;;;27.16;41.59
73338;BME280;61575;49.908;35.556;2022-07-17T13:19:59;99268.88;;;27.31;40.28
73338;BME280;61575;49.908;35.556;2022-07-17T13:23:02;99264.69;;;27.49;40.06
73338;BME280;61575;49.908;35.556;2022-07-17T13:26:04;99250.13;;;27.38;39.18
73338;BME280;61575;49.908;35.556;2022-07-17T13:29:06;99241.09;;;26.92;39.31
73338;BME280;61575;49.908;35.556;2022-07-17T13:32:08;99249.03;;;27.34;40.41
73338;BME280;61575;49.908;35.556;2022-07-17T13:35:11;99241.94;;;26.97;41.08
73338;BME280;61575;49.908;35.556;2022-07-17T13:38:13;99243.59;;;26.98;41.27
73338;BME280;61575;49.908;35.556;2022-07-17T13:41:15;99257.06;;;27.10;39.44
73338;BME280;61575;49.908;35.556;2022-07-17T13:44:17;99254.28;;;27.30;39.97
73338;BME280;61575;49.908;35.556;2022-07-17T13:47:19;99251.19;;;27.47;38.32
73338;BME280;61575;49.908;35.556;2022-07-17T13:50:21;99243.28;;;27.25;38.83
73338;BME280;61575;49.908;35.556;2022-07-17T13:53:23;99245.38;;;27.59;39.50
73338;BME280;61575;49.908;35.556;2022-07-17T13:56:25;99240.72;;;27.64;38.34
73338;BME280;61575;49.908;35.556;2022-07-17T13:59:28;99245.88;;;27.81;38.34
73338;BME280;61575;49.908;35.556;2022-07-17T14:02:30;99245.66;;;27.67;38.88
73338;BME280;61575;49.908;35.556;2022-07-17T14:05:32;99255.88;;;27.47;38.15
73338;BME280;61575;49.908;35.556;2022-07-17T14:08:35;99256.22;;;27.09;39.21
73338;BME280;61575;49.908;35.556;2022-07-17T14:11:37;99252.66;;;26.73;39.57
73338;BME280;61575;49.908;35.556;2022-07-17T14:14:39;99251.00;;;26.72;39.05
73338;BME280;61575;49.908;35.556;2022-07-17T14:17:41;99251.00;;;26.83;39.91
73338;BME280;61575;49.908;35.556;2022-07-17T14:20:44;99259.25;;;26.62;39.53
73338;BME280;61575;49.908;35.556;2022-07-17T14:23:46;99260.91;;;26.78;40.11
73338;BME280;61575;49.908;35.556;2022-07-17T14:26:48;99260.91;;;26.73;40.09
73338;BME280;61575;49.908;35.556;2022-07-17T14:29:50;99270.44;;;26.25;41.12
73338;BME280;61575;49.908;35.556;2022-07-17T14:32:52;99262.47;;;26.29;40.74
73338;BME280;61575;49.908;35.556;2022-07-17T14:35:54;99263.50;;;26.07;39.01
73338;BME280;61575;49.908;35.556;2022-07-17T14:38:56;99257.31;;;26.83;39.83
73338;BME280;61575;49.908;35.556;2022-07-17T14:41:58;99259.47;;;27.42;38.75
73338;BME280;61575;49.908;35.556;2022-07-17T14:45:00;99266.31;;;27.70;38.58
73338;BME280;61575;49.908;35.556;2022-07-17T14:48:02;99253.72;;;27.33;38.00
73338;BME280;61575;49.908;35.556;2022-07-17T14:51:04;99256.78;;;26.91;38.29
73338;BME280;61575;49.908;35.556;2022-07-17T14:54:07;99256.47;;;26.32;39.17
73338;BME280;61575;49.908;35.556;2022-07-17T14:57:09;99259.06;;;25.81;39.85
73338;BME280;61575;49.908;35.556;2022-07-17T15:00:12;99261.53;;;25.77;40.14
73338;BME280;61575;49.908;35.556;2022-07-17T15:03:14;99264.78;;;25.69;40.31
73338;BME280;61575;49.908;35.556;2022-07-17T15:06:16;99263.94;;;25.69;40.43
73338;BME280;61575;49.908;35.556;2022-07-17T15:09:21;99253.53;;;25.76;40.43
73338;BME280;61575;49.908;35.556;2022-07-17T15:12:23;99259.16;;;26.22;39.48
73338;BME280;61575;49.908;35.556;2022-07-17T15:15:25;99263.84;;;26.26;40.16
73338;BME280;61575;49.908;35.556;2022-07-17T15:18:27;99263.28;;;26.29;39.53
73338;BME280;61575;49.908;35.556;2022-07-17T15:21:29;99253.75;;;26.47;40.09
73338;BME280;61575;49.908;35.556;2022-07-17T15:24:51;99249.63;;;26.70;39.88
73338;BME280;61575;49.908;35.556;2022-07-17T15:27:53;99249.91;;;26.84;39.27
73338;BME280;61575;49.908;35.556;2022-07-17T15:30:55;99247.69;;;26.60;39.75
73338;BME280;61575;49.908;35.556;2022-07-17T15:33:57;99252.38;;;26.55;39.52
73338;BME280;61575;49.908;35.556;2022-07-17T15:36:59;99262.13;;;25.90;39.24
73338;BME280;61575;49.908;35.556;2022-07-17T15:40:04;99257.44;;;25.85;40.04
73338;BME280;61575;49.908;35.556;2022-07-17T15:43:07;99258.03;;;25.45;40.04
73338;BME280;61575;49.908;35.556;2022-07-17T15:46:09;99258.00;;;25.40;40.50
73338;BME280;61575;49.908;35.556;2022-07-17T15:49:11;99251.31;;;25.21;40.85
73338;BME280;61575;49.908;35.556;2022-07-17T15:52:13;99254.66;;;24.96;41.01
73338;BME280;61575;49.908;35.556;2022-07-17T15:55:15;99246.69;;;24.57;41.45
73338;BME280;61575;49.908;35.556;2022-07-17T15:58:17;99252.22;;;24.62;41.93
73338;BME280;61575;49.908;35.556;2022-07-17T16:01:19;99253.00;;;24.31;42.86